Strona główna
METAR-TAF:

METAR-TAF

Lotnisko :

Port lotniczy Enontekiö

Enontekiö, Finlandia

Szerokość geograficzna: 68-21-52N, Długość geograficzna: 023-25-39E, wysokość: 308 m

Aktualna obserwacja pogody

Raport powstał 17 minut temu, godzina 01:50 UTC
Wiatr 1 kt z kierunków zmiennych
Temperatura -19°C
Wilgotność 77%
Ciśnienie 1022 hPa
Widzialność 10 km lub więcej
Brak chmur poniżej 1500 m i brak chmur cumulonimbus

METAR: EFET 060150Z AUTO VRB01KT CAVOK M19/M22 Q1022

czas: 05:07 (02:07 UTC)


TAF: brakujący

Obserwacja i prognoza pogody dla ponad 4000 lotnisk (raport METAR i TAF).

Dostępne stacje oznaczono żółtymi i czerwonymi punktami na mapie.

Najedź kursorem aby zobaczyć nazwę stacji.

Kliknij aby zobaczyć obserwacje i prognozy pogody.

Aby zmienić mapę: kliknij na zielony przycisk z czarnym krzyżykiem, aby powiększyć; na zielony przycisk z myślnikiem, aby pomniejszyć; na zielone strzałki, aby przejść do map sąsiednich.


METAR-TAF: